Time;durP1;ratioP1;P1;durP2;ratioP2;P2;SDS_P1;SDS_P2;PMS_P1;PMS_P2;Temp;Humidity;BMP_temperature;BMP_pressure;BME280_temperature;BME280_humidity;BME280_pressure;Samples;Min_cycle;Max_cycle;Signal;HPM_P1;HPM_P2
2023/07/06 08:57:13;;;;;;;14.82;7.32;;;;;;;16.91;100.00;101577.78;5069399;28;20381;-67
2023/07/06 08:59:43;;;;;;;14.02;7.10;;;;;;;16.89;100.00;101577.19;5069377;28;20085;-65
2023/07/06 09:02:21;;;;;;;16.45;6.80;;;;;;;16.93;100.00;101585.72;5065278;28;20415;-68
2023/07/06 09:04:50;;;;;;;14.05;6.72;;;;;;;16.91;100.00;101582.41;5064765;28;20043;-68
2023/07/06 09:07:18;;;;;;;13.13;5.90;;;;;;;16.98;100.00;101585.81;5074571;28;20032;-65
2023/07/06 09:09:47;;;;;;;12.88;5.88;;;;;;;17.06;100.00;101585.41;5071989;28;20025;-65
2023/07/06 09:12:19;;;;;;;17.35;6.13;;;;;;;17.10;100.00;101582.97;5067315;28;20352;-65
2023/07/06 09:14:49;;;;;;;16.98;6.28;;;;;;;17.26;100.00;101584.84;5069750;28;20025;-66
2023/07/06 09:17:16;;;;;;;14.18;5.57;;;;;;;17.34;100.00;101591.78;5069637;28;20025;-66
2023/07/06 09:19:42;;;;;;;13.18;4.93;;;;;;;17.42;100.00;101583.16;5069330;28;20411;-66
2023/07/06 09:22:11;;;;;;;12.38;5.00;;;;;;;17.53;100.00;101586.88;5067978;28;20051;-65
2023/07/06 09:24:37;;;;;;;13.88;4.75;;;;;;;17.63;100.00;101588.88;5069508;28;20595;-65
2023/07/06 09:27:14;;;;;;;12.23;4.95;;;;;;;17.77;100.00;101587.44;5067770;28;20025;-65
2023/07/06 09:29:41;;;;;;;13.23;4.82;;;;;;;17.71;100.00;101583.00;5069370;28;20041;-65
2023/07/06 09:32:10;;;;;;;14.02;4.57;;;;;;;17.70;100.00;101595.00;5067337;28;20388;-66
2023/07/06 09:34:35;;;;;;;10.07;4.20;;;;;;;17.78;100.00;101585.50;5069221;28;20078;-65
2023/07/06 09:37:02;;;;;;;12.23;4.10;;;;;;;17.90;100.00;101583.50;5068951;28;20029;-65
2023/07/06 09:39:27;;;;;;;9.90;4.15;;;;;;;17.97;100.00;101591.53;5069196;28;20052;-65
2023/07/06 09:41:53;;;;;;;12.13;3.47;;;;;;;18.05;100.00;101583.66;5065106;28;20063;-65
2023/07/06 09:44:30;;;;;;;11.05;3.80;;;;;;;18.03;100.00;101588.56;5069117;28;20063;-65
2023/07/06 09:46:58;;;;;;;9.15;3.30;;;;;;;18.01;90.72;101595.38;5069074;28;20064;-65
2023/07/06 09:49:33;;;;;;;11.23;3.42;;;;;;;18.10;100.00;101593.88;5063287;28;20041;-66
2023/07/06 09:52:02;;;;;;;9.88;3.90;;;;;;;18.07;98.44;101597.09;5062484;28;20112;-65
2023/07/06 09:54:59;;;;;;;8.25;3.20;;;;;;;18.12;100.00;101588.94;5068870;28;20020;-66
2023/07/06 09:57:28;;;;;;;11.13;3.35;;;;;;;18.12;90.40;101596.34;5068852;28;20051;-67
2023/07/06 09:59:53;;;;;;;10.02;3.40;;;;;;;18.14;93.75;101585.94;5068859;28;20029;-67
2023/07/06 10:02:26;;;;;;;13.13;3.55;;;;;;;18.19;90.68;101602.44;5063985;28;20047;-66
2023/07/06 10:04:57;;;;;;;8.73;3.08;;;;;;;18.14;88.34;101599.66;5066210;28;20472;-66
2023/07/06 10:07:29;;;;;;;;;;;;;;;18.20;92.81;101591.22;5057223;28;20536;-66
2023/07/06 10:10:15;;;;;;;12.07;3.17;;;;;;;18.26;93.31;101594.84;5054863;28;20363;-65
2023/07/06 10:12:53;;;;;;;8.63;2.80;;;;;;;18.44;80.01;101598.31;5053095;28;20029;-66
2023/07/06 10:15:25;;;;;;;8.13;2.88;;;;;;;18.52;75.81;101584.13;5053771;28;20039;-66
2023/07/06 10:18:08;;;;;;;6.05;2.40;;;;;;;18.75;79.14;101591.16;5049354;28;20118;-68
2023/07/06 10:20:41;;;;;;;9.32;3.10;;;;;;;18.66;72.17;101592.72;5048671;28;20087;-65
2023/07/06 10:23:24;;;;;;;6.90;2.78;;;;;;;18.62;77.67;101594.34;5052975;28;20474;-67
2023/07/06 10:25:57;;;;;;;6.88;2.70;;;;;;;18.47;78.17;101587.63;5068309;28;20475;-68
2023/07/06 10:28:33;;;;;;;7.68;2.50;;;;;;;18.46;80.46;101588.72;5048406;28;20108;-67
2023/07/06 10:31:03;;;;;;;8.13;2.97;;;;;;;18.47;75.06;101587.63;5054719;28;20108;-67
2023/07/06 10:33:57;;;;;;;7.72;2.67;;;;;;;18.68;82.16;101582.34;5037605;28;20100;-68
2023/07/06 10:36:32;;;;;;;8.25;2.80;;;;;;;18.74;72.99;101584.03;5036347;28;20487;-67
2023/07/06 10:38:58;;;;;;;10.25;2.80;;;;;;;18.85;72.95;101584.94;5034688;28;20022;-67
2023/07/06 10:41:30;;;;;;;5.63;2.42;;;;;;;18.90;69.53;101585.00;5036913;28;20029;-66
2023/07/06 10:43:59;;;;;;;7.70;2.63;;;;;;;18.90;65.80;101585.84;5046688;28;20031;-68
2023/07/06 10:46:33;;;;;;;6.88;2.75;;;;;;;18.93;65.85;101587.22;5053550;28;20028;-67
2023/07/06 10:49:21;;;;;;;6.57;2.40;;;;;;;18.94;69.33;101586.13;5054404;28;20104;-68
2023/07/06 10:51:53;;;;;;;6.80;2.58;;;;;;;18.99;66.33;101586.16;5054604;28;20108;-67
2023/07/06 10:54:24;;;;;;;6.28;2.25;;;;;;;19.18;67.41;101585.75;5053276;28;20029;-67
2023/07/06 10:57:02;;;;;;;6.03;2.00;;;;;;;19.41;67.17;101585.31;5054510;28;20037;-68
2023/07/06 10:59:34;;;;;;;5.65;2.17;;;;;;;19.35;63.83;101585.56;5049436;28;20033;-67
2023/07/06 11:02:14;;;;;;;5.90;2.45;;;;;;;19.23;62.80;101592.06;5051813;28;20108;-68
2023/07/06 11:04:40;;;;;;;7.53;2.40;;;;;;;19.20;64.92;101589.03;5052874;28;20063;-69
2023/07/06 11:07:13;;;;;;;5.32;2.10;;;;;;;19.09;63.10;101599.13;5054143;28;20028;-68
2023/07/06 11:09:49;;;;;;;5.25;2.15;;;;;;;19.08;65.21;101592.81;5054299;28;20032;-66
2023/07/06 11:12:19;;;;;;;8.05;2.10;;;;;;;19.03;61.79;101605.66;5054058;28;20055;-65
2023/07/06 11:14:48;;;;;;;4.55;1.90;;;;;;;19.04;63.54;101601.84;5054142;28;20025;-66
2023/07/06 11:17:33;;;;;;;7.18;2.13;;;;;;;19.09;63.95;101607.34;5044523;28;20094;-66
2023/07/06 11:20:09;;;;;;;6.38;2.03;;;;;;;19.11;64.18;101602.41;5032816;28;20040;-67
2023/07/06 11:22:37;;;;;;;9.73;2.30;;;;;;;19.17;64.00;101600.53;5032844;28;20132;-70
2023/07/06 11:25:03;;;;;;;6.72;2.25;;;;;;;19.13;64.64;101601.06;5032537;28;20026;-69
2023/07/06 11:27:35;;;;;;;4.50;2.10;;;;;;;19.05;62.11;101603.47;5034017;28;20060;-70
2023/07/06 11:30:15;;;;;;;8.48;2.47;;;;;;;19.05;65.86;101603.47;5040421;28;20025;-73
2023/07/06 11:32:52;;;;;;;6.32;2.50;;;;;;;19.03;65.19;101605.66;5038854;28;20444;-74
2023/07/06 11:35:24;;;;;;;6.32;2.20;;;;;;;19.00;67.97;101607.00;5052860;28;20108;-74
2023/07/06 11:38:09;;;;;;;;;;;;;;;19.13;67.37;101614.78;5053153;28;20026;-71
2023/07/06 11:40:48;;;;;;;8.98;3.00;;;;;;;18.93;69.42;101615.47;5049623;28;19956;-72
2023/07/06 11:43:34;;;;;;;6.25;2.60;;;;;;;18.96;72.41;101625.06;5039033;28;20025;-72
2023/07/06 11:46:00;;;;;;;6.85;2.33;;;;;;;19.03;68.96;101616.63;5033270;28;20018;-74
2023/07/06 11:48:49;;;;;;;5.90;2.92;;;;;;;19.23;73.61;101614.00;5032712;28;20108;-72
2023/07/06 11:51:15;;;;;;;9.05;2.78;;;;;;;19.57;69.35;101612.84;5033441;28;20032;-71
2023/07/06 11:53:54;;;;;;;8.23;2.80;;;;;;;19.73;66.00;101619.22;5033184;28;20373;-74
2023/07/06 11:56:33;;;;;;;7.00;2.50;;;;;;;19.89;65.56;101611.91;5031555;28;20488;-73
2023/07/06 11:59:15;;;;;;;6.55;2.33;;;;;;;19.79;61.47;101621.78;5033003;28;20361;-70
2023/07/06 12:01:57;;;;;;;4.60;1.95;;;;;;;19.63;57.91;101623.59;5029189;28;20026;-68
2023/07/06 12:04:26;;;;;;;4.60;1.98;;;;;;;19.53;61.07;101620.78;5049529;28;20070;-77
2023/07/06 12:06:54;;;;;;;5.78;2.50;;;;;;;19.54;63.54;101618.88;5060315;28;20033;-74
2023/07/06 12:09:24;;;;;;;7.35;2.45;;;;;;;19.53;61.83;101618.03;5065724;28;20024;-70
2023/07/06 12:12:05;;;;;;;5.15;2.33;;;;;;;19.52;61.35;101619.16;5056532;28;20471;-73
2023/07/06 12:14:32;;;;;;;;;;;;;;;19.56;64.07;101613.94;5053089;28;20179;-71
2023/07/06 12:16:59;;;;;;;4.18;2.00;;;;;;;19.43;58.87;101618.81;5051275;28;19954;-73
2023/07/06 12:19:25;;;;;;;7.38;1.92;;;;;;;19.42;58.97;101619.09;5032590;28;20048;-72
2023/07/06 12:21:52;;;;;;;3.97;1.60;;;;;;;19.72;59.00;101623.09;5032347;28;20464;-69
2023/07/06 12:24:21;;;;;;;6.80;2.20;;;;;;;19.88;57.28;101610.25;5031243;28;20372;-70
2023/07/06 12:26:53;;;;;;;7.32;2.15;;;;;;;19.87;56.82;101614.09;5035971;28;20427;-69
2023/07/06 12:29:27;;;;;;;5.25;1.98;;;;;;;19.85;58.96;101617.09;5051944;28;20055;-71
2023/07/06 12:31:57;;;;;;;4.30;2.00;;;;;;;19.88;60.61;101618.50;5052974;28;20071;-74
2023/07/06 12:34:29;;;;;;;11.77;2.47;;;;;;;19.88;59.82;101621.25;5030624;28;20104;-72
2023/07/06 12:37:00;;;;;;;4.45;1.90;;;;;;;19.97;59.36;101614.97;5047015;28;20055;-72
2023/07/06 12:39:27;;;;;;;6.45;1.95;;;;;;;20.26;57.98;101616.41;5048669;28;20017;-73
2023/07/06 12:41:54;;;;;;;4.13;1.83;;;;;;;20.56;57.89;101612.06;5032160;28;20025;-75
2023/07/06 12:44:22;;;;;;;8.60;2.20;;;;;;;20.80;54.42;101613.19;5030871;28;20087;-72
2023/07/06 12:46:51;;;;;;;5.53;1.85;;;;;;;20.85;51.42;101615.94;5032420;28;20416;-72
2023/07/06 12:49:21;;;;;;;4.53;1.98;;;;;;;20.92;51.74;101617.59;5032397;28;20026;-73
2023/07/06 12:51:58;;;;;;;3.72;1.70;;;;;;;21.10;53.16;101608.75;5034472;28;20030;-74
2023/07/06 12:54:29;;;;;;;3.72;1.80;;;;;;;21.21;49.70;101604.06;5032026;28;20476;-70
2023/07/06 12:57:00;;;;;;;4.97;2.22;;;;;;;21.40;49.85;101613.38;5045016;28;20498;-73
2023/07/06 12:59:32;;;;;;;5.63;1.88;;;;;;;21.55;49.60;101604.28;5033163;28;20033;-72
2023/07/06 13:01:59;;;;;;;4.65;2.10;;;;;;;21.54;49.42;101596.28;5030253;28;20352;-72
2023/07/06 13:04:40;;;;;;;3.42;1.65;;;;;;;21.36;49.75;101593.03;5031177;28;20056;-73
2023/07/06 13:07:08;;;;;;;5.22;2.05;;;;;;;21.58;50.65;101597.38;5032908;28;20093;-73
2023/07/06 13:09:33;;;;;;;4.72;1.70;;;;;;;21.86;51.02;101597.78;5044968;28;20021;-68
2023/07/06 13:12:01;;;;;;;5.28;1.85;;;;;;;22.09;49.60;101602.63;5049816;28;20036;-71
2023/07/06 13:14:34;;;;;;;3.45;1.50;;;;;;;22.21;48.13;101615.25;5037403;28;20104;-71
2023/07/06 13:17:05;;;;;;;2.60;1.60;;;;;;;21.97;46.56;101602.16;5032145;28;20497;-70
2023/07/06 13:19:34;;;;;;;;;;;;;;;21.93;49.68;101609.34;5034460;28;20060;-70
2023/07/06 13:22:00;;;;;;;6.80;2.17;;;;;;;21.51;49.89;101605.94;5043257;28;19912;-66
2023/07/06 13:24:28;;;;;;;6.25;2.40;;;;;;;21.31;50.32;101620.56;5052047;28;20461;-70
2023/07/06 13:26:53;;;;;;;3.78;1.45;;;;;;;21.12;50.34;101609.31;5052243;28;20032;-66
2023/07/06 13:29:19;;;;;;;4.80;2.20;;;;;;;21.01;51.74;101608.50;5042159;28;20028;-69
2023/07/06 13:31:45;;;;;;;8.15;2.20;;;;;;;21.01;52.24;101604.91;5051089;28;20058;-67
2023/07/06 13:34:11;;;;;;;6.07;2.25;;;;;;;20.97;50.55;101614.81;5051086;28;20384;-67
2023/07/06 13:36:38;;;;;;;6.45;2.15;;;;;;;21.04;51.77;101612.63;5051851;28;20032;-70
2023/07/06 13:39:06;;;;;;;5.10;2.00;;;;;;;21.06;51.06;101613.16;5051855;28;20033;-67
2023/07/06 13:41:34;;;;;;;4.70;2.10;;;;;;;20.95;48.84;101617.84;5052192;28;20021;-68
2023/07/06 13:44:00;;;;;;;5.53;1.83;;;;;;;21.04;50.20;101610.69;5049144;28;20112;-68
2023/07/06 13:46:26;;;;;;;5.47;2.20;;;;;;;21.37;50.64;101607.59;5035167;28;20029;-69
2023/07/06 13:48:52;;;;;;;5.10;2.20;;;;;;;21.79;50.55;101608.31;5034871;28;20523;-68
2023/07/06 13:51:17;;;;;;;5.30;2.10;;;;;;;21.61;48.23;101601.50;5054988;28;20391;-68
2023/07/06 13:53:50;;;;;;;6.10;2.10;;;;;;;21.41;48.17;101606.75;5054538;28;20068;-69
2023/07/06 13:56:17;;;;;;;3.72;2.13;;;;;;;21.30;49.74;101610.63;5055486;28;20045;-68
2023/07/06 13:58:43;;;;;;;4.72;1.90;;;;;;;21.64;50.01;101603.69;5055700;28;20029;-68
2023/07/06 14:01:13;;;;;;;7.22;2.10;;;;;;;22.01;47.26;101606.00;5052986;28;20432;-69
2023/07/06 14:03:40;;;;;;;4.43;2.00;;;;;;;22.07;48.26;101604.88;5042264;28;20024;-68
2023/07/06 14:06:10;;;;;;;6.85;2.10;;;;;;;22.12;49.07;101602.06;5045077;28;20099;-68
2023/07/06 14:08:36;;;;;;;4.30;2.00;;;;;;;22.33;48.28;101590.94;5035052;28;20067;-68
2023/07/06 14:11:03;;;;;;;5.05;1.75;;;;;;;22.42;47.56;101597.50;5038159;28;20033;-68
2023/07/06 14:13:29;;;;;;;8.02;2.10;;;;;;;22.30;46.87;101597.81;5036750;28;20021;-67
2023/07/06 14:15:55;;;;;;;8.70;2.13;;;;;;;22.02;46.27;101593.84;5053795;28;20029;-71
2023/07/06 14:18:23;;;;;;;7.65;2.80;;;;;;;21.84;47.73;101606.34;5054917;28;20087;-71
2023/07/06 14:20:50;;;;;;;5.38;2.38;;;;;;;21.68;47.99;101600.09;5054304;28;20020;-68
2023/07/06 14:23:17;;;;;;;5.25;2.33;;;;;;;21.56;48.96;101588.59;5054934;28;20024;-68
2023/07/06 14:25:43;;;;;;;5.75;2.40;;;;;;;21.73;49.08;101602.00;5055157;28;20057;-68
2023/07/06 14:28:10;;;;;;;7.93;2.58;;;;;;;21.88;48.14;101601.13;5046624;28;20074;-71
2023/07/06 14:30:36;;;;;;;5.95;2.30;;;;;;;21.85;47.76;101604.44;5044539;28;20028;-71
2023/07/06 14:33:06;;;;;;;7.38;2.40;;;;;;;21.91;47.60;101598.59;5048870;28;20056;-69
2023/07/06 14:35:33;;;;;;;9.05;2.45;;;;;;;21.80;47.27;101598.94;5044221;28;20024;-68
2023/07/06 14:37:59;;;;;;;4.90;1.83;;;;;;;21.74;47.25;101607.22;5034935;28;20029;-68
2023/07/06 14:40:25;;;;;;;7.13;2.20;;;;;;;21.66;46.75;101599.53;5035097;28;20541;-69
2023/07/06 14:42:55;;;;;;;5.40;1.83;;;;;;;21.93;47.77;101599.13;5034541;28;20449;-69
2023/07/06 14:45:22;;;;;;;3.92;1.80;;;;;;;22.25;48.52;101594.28;5034660;28;20572;-71
2023/07/06 14:47:47;;;;;;;3.90;1.92;;;;;;;22.23;47.75;101590.97;5033309;28;20060;-71
2023/07/06 14:50:14;;;;;;;3.72;1.85;;;;;;;22.23;48.49;101591.81;5034073;28;20055;-71
2023/07/06 14:52:43;;;;;;;4.90;1.80;;;;;;;22.00;47.07;101585.06;5033597;28;20430;-69
2023/07/06 14:55:10;;;;;;;6.20;2.10;;;;;;;21.97;46.47;101598.56;5043772;28;20036;-69
2023/07/06 14:57:35;;;;;;;5.82;1.90;;;;;;;21.91;46.52;101589.53;5035500;28;20376;-68
2023/07/06 15:00:01;;;;;;;3.80;1.83;;;;;;;21.97;47.02;101585.63;5043291;28;20020;-67
2023/07/06 15:02:27;;;;;;;7.00;1.83;;;;;;;22.16;46.88;101591.28;5051287;28;20025;-67
2023/07/06 15:04:53;;;;;;;4.68;1.98;;;;;;;22.23;45.65;101589.03;5056870;28;20029;-67
2023/07/06 15:07:19;;;;;;;5.22;1.90;;;;;;;22.53;45.88;101598.25;5041128;28;20116;-67
2023/07/06 15:09:47;;;;;;;4.53;1.67;;;;;;;22.73;45.37;101588.97;5034816;28;20079;-68
2023/07/06 15:12:12;;;;;;;4.82;1.90;;;;;;;22.69;44.82;101581.56;5033873;28;20123;-68
2023/07/06 15:14:38;;;;;;;5.35;2.03;;;;;;;22.53;44.72;101587.22;5040149;28;20464;-68
2023/07/06 15:17:04;;;;;;;3.28;1.95;;;;;;;22.36;45.00;101584.88;5056818;28;20460;-69
2023/07/06 15:19:29;;;;;;;4.95;2.08;;;;;;;22.16;44.84;101587.72;5050423;28;20098;-69
2023/07/06 15:21:54;;;;;;;5.18;2.05;;;;;;;22.24;45.50;101587.13;5053367;28;20032;-68
2023/07/06 15:24:20;;;;;;;5.57;2.08;;;;;;;22.58;44.57;101583.59;5045483;28;20052;-68
2023/07/06 15:26:45;;;;;;;6.85;1.73;;;;;;;23.08;44.43;101573.16;5033889;28;20370;-69
2023/07/06 15:29:11;;;;;;;5.85;2.00;;;;;;;23.21;43.74;101574.47;5042582;28;20021;-68
2023/07/06 15:31:37;;;;;;;3.17;1.65;;;;;;;23.51;45.73;101578.78;5052765;28;20648;-68
2023/07/06 15:34:02;;;;;;;5.80;1.98;;;;;;;23.44;42.58;101572.81;5051927;28;20024;-69
2023/07/06 15:36:28;;;;;;;6.25;2.30;;;;;;;23.36;42.37;101576.22;5037249;28;20036;-69
2023/07/06 15:38:53;;;;;;;5.57;2.22;;;;;;;23.63;42.09;101575.63;5033861;28;20029;-69
2023/07/06 15:41:19;;;;;;;5.35;2.00;;;;;;;23.82;40.97;101578.38;5040134;28;20082;-69
2023/07/06 15:43:45;;;;;;;4.05;1.60;;;;;;;23.73;40.74;101562.78;5053643;28;20465;-70
2023/07/06 15:46:10;;;;;;;5.22;1.88;;;;;;;23.88;41.11;101571.72;5052114;28;20064;-69
2023/07/06 15:48:36;;;;;;;7.95;2.10;;;;;;;24.04;42.47;101566.78;5045467;28;20345;-74
2023/07/06 15:51:02;;;;;;;6.35;2.08;;;;;;;24.12;39.95;101564.47;5033631;28;20488;-77
2023/07/06 15:53:28;;;;;;;5.72;2.00;;;;;;;24.35;40.89;101558.03;5034158;28;20068;-74
2023/07/06 15:56:02;;;;;;;4.57;2.00;;;;;;;25.11;41.10;101559.78;5031799;28;20102;-69
2023/07/06 15:58:29;;;;;;;5.20;1.80;;;;;;;25.66;38.14;101558.94;5034853;28;20056;-67
2023/07/06 16:00:55;;;;;;;4.28;1.70;;;;;;;26.04;37.67;101555.09;5046481;28;20487;-71
2023/07/06 16:03:21;;;;;;;3.67;1.60;;;;;;;26.26;37.64;101548.75;5050779;28;20044;-70
2023/07/06 16:05:47;;;;;;;5.55;1.90;;;;;;;26.29;35.85;101551.69;5032410;28;20100;-74
